sensor_id;sensor_type;location;lat;lon;timestamp;P1;durP1;ratioP1;P2;durP2;ratioP2
6374;SDS011;35400;45.472;-122.822;2022-12-18T00:01:24;13.07;;;9.73;;
6374;SDS011;35400;45.472;-122.822;2022-12-18T00:03:57;13.37;;;9.37;;
6374;SDS011;35400;45.472;-122.822;2022-12-18T00:06:25;14.43;;;10.67;;
6374;SDS011;35400;45.472;-122.822;2022-12-18T00:08:55;12.60;;;9.87;;
6374;SDS011;35400;45.472;-122.822;2022-12-18T00:11:24;11.37;;;9.17;;
6374;SDS011;35400;45.472;-122.822;2022-12-18T00:13:53;13.00;;;9.80;;
6374;SDS011;35400;45.472;-122.822;2022-12-18T00:16:22;13.40;;;9.77;;
6374;SDS011;35400;45.472;-122.822;2022-12-18T00:18:51;15.50;;;9.93;;
6374;SDS011;35400;45.472;-122.822;2022-12-18T00:21:20;10.93;;;9.60;;
6374;SDS011;35400;45.472;-122.822;2022-12-18T00:23:47;14.00;;;9.70;;
6374;SDS011;35400;45.472;-122.822;2022-12-18T00:26:20;11.70;;;9.37;;
6374;SDS011;35400;45.472;-122.822;2022-12-18T00:28:58;12.50;;;9.20;;
6374;SDS011;35400;45.472;-122.822;2022-12-18T00:31:26;13.17;;;10.00;;
6374;SDS011;35400;45.472;-122.822;2022-12-18T00:33:54;13.10;;;10.10;;
6374;SDS011;35400;45.472;-122.822;2022-12-18T00:36:31;14.53;;;10.27;;
6374;SDS011;35400;45.472;-122.822;2022-12-18T00:39:00;14.53;;;10.83;;
6374;SDS011;35400;45.472;-122.822;2022-12-18T00:41:29;14.57;;;9.60;;
6374;SDS011;35400;45.472;-122.822;2022-12-18T00:44:15;14.30;;;10.70;;
6374;SDS011;35400;45.472;-122.822;2022-12-18T00:46:44;12.97;;;10.13;;
6374;SDS011;35400;45.472;-122.822;2022-12-18T00:49:11;14.67;;;9.90;;
6374;SDS011;35400;45.472;-122.822;2022-12-18T00:51:39;13.40;;;9.53;;
6374;SDS011;35400;45.472;-122.822;2022-12-18T00:54:06;13.37;;;9.57;;
6374;SDS011;35400;45.472;-122.822;2022-12-18T00:56:34;16.40;;;10.90;;
6374;SDS011;35400;45.472;-122.822;2022-12-18T00:59:02;13.57;;;9.73;;
6374;SDS011;35400;45.472;-122.822;2022-12-18T01:01:30;13.17;;;9.70;;
6374;SDS011;35400;45.472;-122.822;2022-12-18T01:03:59;11.60;;;8.97;;
6374;SDS011;35400;45.472;-122.822;2022-12-18T01:06:27;13.73;;;10.50;;
6374;SDS011;35400;45.472;-122.822;2022-12-18T01:08:55;13.80;;;9.33;;
6374;SDS011;35400;45.472;-122.822;2022-12-18T01:11:22;14.73;;;10.90;;
6374;SDS011;35400;45.472;-122.822;2022-12-18T01:13:49;15.10;;;10.70;;
6374;SDS011;35400;45.472;-122.822;2022-12-18T01:16:17;16.27;;;11.20;;
6374;SDS011;35400;45.472;-122.822;2022-12-18T01:18:44;14.80;;;10.87;;
6374;SDS011;35400;45.472;-122.822;2022-12-18T01:21:13;16.23;;;10.97;;
6374;SDS011;35400;45.472;-122.822;2022-12-18T01:23:41;14.87;;;10.73;;
6374;SDS011;35400;45.472;-122.822;2022-12-18T01:26:12;14.57;;;10.50;;
6374;SDS011;35400;45.472;-122.822;2022-12-18T01:28:41;12.70;;;9.77;;
6374;SDS011;35400;45.472;-122.822;2022-12-18T01:31:10;13.93;;;10.60;;
6374;SDS011;35400;45.472;-122.822;2022-12-18T01:33:45;14.20;;;10.80;;
6374;SDS011;35400;45.472;-122.822;2022-12-18T01:36:16;17.30;;;11.03;;
6374;SDS011;35400;45.472;-122.822;2022-12-18T01:38:43;13.20;;;10.30;;
6374;SDS011;35400;45.472;-122.822;2022-12-18T01:41:10;13.53;;;10.77;;
6374;SDS011;35400;45.472;-122.822;2022-12-18T01:43:44;14.20;;;11.80;;
6374;SDS011;35400;45.472;-122.822;2022-12-18T01:46:18;14.30;;;10.70;;
6374;SDS011;35400;45.472;-122.822;2022-12-18T01:48:49;12.73;;;9.80;;
6374;SDS011;35400;45.472;-122.822;2022-12-18T01:51:19;16.33;;;11.27;;
6374;SDS011;35400;45.472;-122.822;2022-12-18T01:53:47;16.00;;;10.43;;
6374;SDS011;35400;45.472;-122.822;2022-12-18T01:56:18;14.87;;;10.77;;
6374;SDS011;35400;45.472;-122.822;2022-12-18T01:59:03;14.73;;;10.77;;
6374;SDS011;35400;45.472;-122.822;2022-12-18T02:01:32;14.63;;;10.17;;
6374;SDS011;35400;45.472;-122.822;2022-12-18T02:04:21;14.70;;;11.40;;
6374;SDS011;35400;45.472;-122.822;2022-12-18T02:07:07;15.17;;;11.27;;
6374;SDS011;35400;45.472;-122.822;2022-12-18T02:09:50;14.57;;;10.10;;
6374;SDS011;35400;45.472;-122.822;2022-12-18T02:17:58;17.00;;;12.70;;
6374;SDS011;35400;45.472;-122.822;2022-12-18T02:29:10;48.00;;;32.63;;
6374;SDS011;35400;45.472;-122.822;2022-12-18T02:31:54;19.43;;;13.83;;
6374;SDS011;35400;45.472;-122.822;2022-12-18T02:34:28;24.17;;;16.53;;
6374;SDS011;35400;45.472;-122.822;2022-12-18T02:36:59;17.80;;;13.23;;
6374;SDS011;35400;45.472;-122.822;2022-12-18T02:39:30;19.80;;;13.87;;
6374;SDS011;35400;45.472;-122.822;2022-12-18T02:42:02;18.90;;;14.90;;
6374;SDS011;35400;45.472;-122.822;2022-12-18T02:44:34;19.97;;;15.03;;
6374;SDS011;35400;45.472;-122.822;2022-12-18T02:47:09;18.83;;;14.20;;
6374;SDS011;35400;45.472;-122.822;2022-12-18T02:52:32;20.83;;;14.57;;
6374;SDS011;35400;45.472;-122.822;2022-12-18T02:55:15;20.00;;;15.13;;
6374;SDS011;35400;45.472;-122.822;2022-12-18T02:58:16;22.63;;;16.37;;
6374;SDS011;35400;45.472;-122.822;2022-12-18T03:01:07;26.60;;;17.57;;
6374;SDS011;35400;45.472;-122.822;2022-12-18T03:06:12;21.93;;;16.27;;
6374;SDS011;35400;45.472;-122.822;2022-12-18T03:08:44;23.17;;;16.33;;
6374;SDS011;35400;45.472;-122.822;2022-12-18T03:11:16;21.00;;;15.20;;
6374;SDS011;35400;45.472;-122.822;2022-12-18T03:14:05;21.97;;;16.10;;
6374;SDS011;35400;45.472;-122.822;2022-12-18T03:16:33;23.77;;;16.37;;
6374;SDS011;35400;45.472;-122.822;2022-12-18T03:19:06;22.37;;;15.73;;
6374;SDS011;35400;45.472;-122.822;2022-12-18T03:21:45;22.07;;;15.97;;
6374;SDS011;35400;45.472;-122.822;2022-12-18T03:24:16;23.40;;;15.80;;
6374;SDS011;35400;45.472;-122.822;2022-12-18T03:26:46;19.97;;;15.73;;
6374;SDS011;35400;45.472;-122.822;2022-12-18T03:29:18;24.30;;;16.67;;
6374;SDS011;35400;45.472;-122.822;2022-12-18T03:31:52;22.77;;;15.27;;
6374;SDS011;35400;45.472;-122.822;2022-12-18T03:34:29;24.43;;;15.83;;
6374;SDS011;35400;45.472;-122.822;2022-12-18T03:37:02;22.57;;;15.60;;
6374;SDS011;35400;45.472;-122.822;2022-12-18T03:39:31;22.50;;;15.17;;
6374;SDS011;35400;45.472;-122.822;2022-12-18T03:44:53;20.67;;;14.83;;
6374;SDS011;35400;45.472;-122.822;2022-12-18T03:47:40;23.80;;;15.37;;
6374;SDS011;35400;45.472;-122.822;2022-12-18T03:50:27;26.03;;;15.83;;
6374;SDS011;35400;45.472;-122.822;2022-12-18T03:55:51;19.93;;;14.30;;
6374;SDS011;35400;45.472;-122.822;2022-12-18T03:58:20;17.17;;;12.90;;
6374;SDS011;35400;45.472;-122.822;2022-12-18T04:01:03;20.20;;;14.33;;
6374;SDS011;35400;45.472;-122.822;2022-12-18T04:03:40;19.53;;;14.23;;
6374;SDS011;35400;45.472;-122.822;2022-12-18T04:06:09;25.00;;;15.93;;
6374;SDS011;35400;45.472;-122.822;2022-12-18T04:08:39;22.20;;;14.43;;
6374;SDS011;35400;45.472;-122.822;2022-12-18T04:11:09;21.63;;;14.47;;
6374;SDS011;35400;45.472;-122.822;2022-12-18T04:13:38;19.77;;;13.43;;
6374;SDS011;35400;45.472;-122.822;2022-12-18T04:16:09;18.93;;;13.80;;
6374;SDS011;35400;45.472;-122.822;2022-12-18T04:18:40;23.07;;;15.47;;
6374;SDS011;35400;45.472;-122.822;2022-12-18T04:21:07;22.40;;;15.60;;
6374;SDS011;35400;45.472;-122.822;2022-12-18T04:23:36;32.30;;;17.93;;
6374;SDS011;35400;45.472;-122.822;2022-12-18T04:26:04;26.93;;;18.40;;
6374;SDS011;35400;45.472;-122.822;2022-12-18T04:28:49;37.50;;;24.10;;
6374;SDS011;35400;45.472;-122.822;2022-12-18T04:31:16;32.50;;;21.30;;
6374;SDS011;35400;45.472;-122.822;2022-12-18T04:33:43;28.23;;;20.43;;
6374;SDS011;35400;45.472;-122.822;2022-12-18T04:36:10;24.47;;;17.73;;
6374;SDS011;35400;45.472;-122.822;2022-12-18T04:38:39;28.03;;;19.10;;
6374;SDS011;35400;45.472;-122.822;2022-12-18T04:41:11;26.87;;;18.30;;
6374;SDS011;35400;45.472;-122.822;2022-12-18T04:43:39;21.87;;;15.10;;
6374;SDS011;35400;45.472;-122.822;2022-12-18T04:46:07;25.37;;;14.57;;
6374;SDS011;35400;45.472;-122.822;2022-12-18T04:48:35;14.97;;;11.00;;
6374;SDS011;35400;45.472;-122.822;2022-12-18T04:51:02;16.57;;;11.53;;
6374;SDS011;35400;45.472;-122.822;2022-12-18T04:53:30;14.43;;;10.30;;
6374;SDS011;35400;45.472;-122.822;2022-12-18T04:56:04;17.67;;;13.73;;
6374;SDS011;35400;45.472;-122.822;2022-12-18T04:58:35;17.10;;;12.23;;
6374;SDS011;35400;45.472;-122.822;2022-12-18T05:01:03;20.97;;;13.57;;
6374;SDS011;35400;45.472;-122.822;2022-12-18T05:03:30;19.07;;;14.50;;
6374;SDS011;35400;45.472;-122.822;2022-12-18T05:05:58;20.23;;;15.60;;
6374;SDS011;35400;45.472;-122.822;2022-12-18T05:08:25;24.47;;;15.77;;
6374;SDS011;35400;45.472;-122.822;2022-12-18T05:10:59;20.83;;;14.53;;
6374;SDS011;35400;45.472;-122.822;2022-12-18T05:13:31;22.03;;;14.53;;
6374;SDS011;35400;45.472;-122.822;2022-12-18T05:15:59;21.33;;;15.50;;
6374;SDS011;35400;45.472;-122.822;2022-12-18T05:18:26;22.13;;;14.80;;
6374;SDS011;35400;45.472;-122.822;2022-12-18T05:20:54;21.07;;;14.47;;
6374;SDS011;35400;45.472;-122.822;2022-12-18T05:23:22;23.03;;;16.53;;
6374;SDS011;35400;45.472;-122.822;2022-12-18T05:28:19;27.47;;;16.43;;
6374;SDS011;35400;45.472;-122.822;2022-12-18T05:30:50;54.57;;;26.47;;
6374;SDS011;35400;45.472;-122.822;2022-12-18T05:33:18;44.37;;;23.60;;
6374;SDS011;35400;45.472;-122.822;2022-12-18T05:35:53;31.17;;;19.30;;
6374;SDS011;35400;45.472;-122.822;2022-12-18T05:38:21;56.90;;;29.33;;
6374;SDS011;35400;45.472;-122.822;2022-12-18T05:40:50;66.30;;;36.87;;
6374;SDS011;35400;45.472;-122.822;2022-12-18T05:43:18;39.53;;;24.40;;
6374;SDS011;35400;45.472;-122.822;2022-12-18T05:45:45;28.77;;;19.30;;
6374;SDS011;35400;45.472;-122.822;2022-12-18T05:48:12;30.10;;;20.83;;
6374;SDS011;35400;45.472;-122.822;2022-12-18T05:50:41;30.40;;;21.90;;
6374;SDS011;35400;45.472;-122.822;2022-12-18T05:53:11;32.60;;;21.83;;
6374;SDS011;35400;45.472;-122.822;2022-12-18T05:55:39;25.57;;;17.23;;
6374;SDS011;35400;45.472;-122.822;2022-12-18T05:58:07;51.93;;;32.50;;
6374;SDS011;35400;45.472;-122.822;2022-12-18T06:00:36;40.20;;;24.07;;
6374;SDS011;35400;45.472;-122.822;2022-12-18T06:03:07;39.80;;;24.10;;
6374;SDS011;35400;45.472;-122.822;2022-12-18T06:05:36;35.37;;;22.57;;
6374;SDS011;35400;45.472;-122.822;2022-12-18T06:08:05;33.60;;;22.13;;
6374;SDS011;35400;45.472;-122.822;2022-12-18T06:10:33;38.03;;;24.63;;
6374;SDS011;35400;45.472;-122.822;2022-12-18T06:13:00;33.40;;;22.80;;
6374;SDS011;35400;45.472;-122.822;2022-12-18T06:15:27;30.47;;;22.20;;
6374;SDS011;35400;45.472;-122.822;2022-12-18T06:17:54;32.13;;;21.53;;
6374;SDS011;35400;45.472;-122.822;2022-12-18T06:20:20;27.87;;;19.53;;
6374;SDS011;35400;45.472;-122.822;2022-12-18T06:22:47;25.67;;;18.70;;
6374;SDS011;35400;45.472;-122.822;2022-12-18T06:25:14;26.17;;;18.37;;
6374;SDS011;35400;45.472;-122.822;2022-12-18T06:27:42;28.07;;;18.83;;
6374;SDS011;35400;45.472;-122.822;2022-12-18T06:30:09;27.43;;;19.93;;
6374;SDS011;35400;45.472;-122.822;2022-12-18T06:32:36;26.90;;;18.07;;
6374;SDS011;35400;45.472;-122.822;2022-12-18T06:35:03;28.07;;;18.57;;
6374;SDS011;35400;45.472;-122.822;2022-12-18T06:37:31;27.03;;;18.37;;
6374;SDS011;35400;45.472;-122.822;2022-12-18T06:39:58;26.37;;;18.70;;
6374;SDS011;35400;45.472;-122.822;2022-12-18T06:42:26;23.17;;;16.23;;
6374;SDS011;35400;45.472;-122.822;2022-12-18T06:44:54;24.37;;;17.17;;
6374;SDS011;35400;45.472;-122.822;2022-12-18T06:47:21;24.23;;;16.20;;
6374;SDS011;35400;45.472;-122.822;2022-12-18T06:49:48;20.20;;;14.20;;
6374;SDS011;35400;45.472;-122.822;2022-12-18T06:52:14;24.83;;;15.10;;
6374;SDS011;35400;45.472;-122.822;2022-12-18T06:54:41;22.00;;;15.20;;
6374;SDS011;35400;45.472;-122.822;2022-12-18T06:57:09;20.50;;;14.67;;
6374;SDS011;35400;45.472;-122.822;2022-12-18T06:59:35;18.93;;;14.73;;
6374;SDS011;35400;45.472;-122.822;2022-12-18T07:02:02;20.83;;;14.60;;
6374;SDS011;35400;45.472;-122.822;2022-12-18T07:04:30;21.00;;;14.17;;
6374;SDS011;35400;45.472;-122.822;2022-12-18T07:06:57;22.37;;;16.07;;
6374;SDS011;35400;45.472;-122.822;2022-12-18T07:09:24;22.40;;;16.57;;
6374;SDS011;35400;45.472;-122.822;2022-12-18T07:11:51;21.03;;;14.70;;
6374;SDS011;35400;45.472;-122.822;2022-12-18T07:14:18;24.77;;;14.93;;
6374;SDS011;35400;45.472;-122.822;2022-12-18T07:16:46;23.27;;;16.50;;
6374;SDS011;35400;45.472;-122.822;2022-12-18T07:19:12;19.43;;;14.07;;
6374;SDS011;35400;45.472;-122.822;2022-12-18T07:21:39;25.37;;;16.73;;
6374;SDS011;35400;45.472;-122.822;2022-12-18T07:24:06;23.63;;;16.57;;
6374;SDS011;35400;45.472;-122.822;2022-12-18T07:26:33;24.00;;;16.83;;
6374;SDS011;35400;45.472;-122.822;2022-12-18T07:29:00;25.03;;;16.83;;
6374;SDS011;35400;45.472;-122.822;2022-12-18T07:31:27;23.83;;;15.87;;
6374;SDS011;35400;45.472;-122.822;2022-12-18T07:33:54;23.23;;;16.47;;
6374;SDS011;35400;45.472;-122.822;2022-12-18T07:36:22;23.37;;;15.73;;
6374;SDS011;35400;45.472;-122.822;2022-12-18T07:38:49;28.23;;;16.33;;
6374;SDS011;35400;45.472;-122.822;2022-12-18T07:41:17;22.03;;;15.67;;
6374;SDS011;35400;45.472;-122.822;2022-12-18T07:43:44;20.90;;;15.53;;
6374;SDS011;35400;45.472;-122.822;2022-12-18T07:46:12;21.57;;;14.57;;
6374;SDS011;35400;45.472;-122.822;2022-12-18T07:48:40;27.57;;;16.53;;
6374;SDS011;35400;45.472;-122.822;2022-12-18T07:51:07;22.50;;;15.80;;
6374;SDS011;35400;45.472;-122.822;2022-12-18T07:53:38;20.70;;;15.00;;
6374;SDS011;35400;45.472;-122.822;2022-12-18T07:56:06;21.93;;;15.40;;
6374;SDS011;35400;45.472;-122.822;2022-12-18T07:58:35;22.10;;;15.27;;
6374;SDS011;35400;45.472;-122.822;2022-12-18T08:01:09;21.37;;;15.10;;
6374;SDS011;35400;45.472;-122.822;2022-12-18T08:03:39;20.37;;;15.70;;
6374;SDS011;35400;45.472;-122.822;2022-12-18T08:06:08;21.93;;;14.13;;
6374;SDS011;35400;45.472;-122.822;2022-12-18T08:08:35;18.30;;;14.13;;
6374;SDS011;35400;45.472;-122.822;2022-12-18T08:11:02;21.83;;;15.03;;
6374;SDS011;35400;45.472;-122.822;2022-12-18T08:13:29;19.93;;;14.30;;
6374;SDS011;35400;45.472;-122.822;2022-12-18T08:15:57;21.57;;;14.83;;
6374;SDS011;35400;45.472;-122.822;2022-12-18T08:18:25;18.13;;;14.40;;
6374;SDS011;35400;45.472;-122.822;2022-12-18T08:20:52;21.20;;;14.30;;
6374;SDS011;35400;45.472;-122.822;2022-12-18T08:23:19;22.77;;;14.43;;
6374;SDS011;35400;45.472;-122.822;2022-12-18T08:25:45;20.00;;;14.30;;
6374;SDS011;35400;45.472;-122.822;2022-12-18T08:28:12;18.23;;;14.10;;
6374;SDS011;35400;45.472;-122.822;2022-12-18T08:30:42;21.37;;;13.97;;
6374;SDS011;35400;45.472;-122.822;2022-12-18T08:33:09;19.73;;;14.67;;
6374;SDS011;35400;45.472;-122.822;2022-12-18T08:35:36;21.50;;;14.43;;
6374;SDS011;35400;45.472;-122.822;2022-12-18T08:38:03;19.93;;;14.07;;
6374;SDS011;35400;45.472;-122.822;2022-12-18T08:40:30;18.53;;;12.97;;
6374;SDS011;35400;45.472;-122.822;2022-12-18T08:42:57;21.67;;;15.27;;
6374;SDS011;35400;45.472;-122.822;2022-12-18T08:45:42;20.23;;;14.10;;
6374;SDS011;35400;45.472;-122.822;2022-12-18T08:48:09;21.20;;;14.67;;
6374;SDS011;35400;45.472;-122.822;2022-12-18T08:50:36;19.13;;;14.37;;
6374;SDS011;35400;45.472;-122.822;2022-12-18T08:53:03;21.20;;;15.13;;
6374;SDS011;35400;45.472;-122.822;2022-12-18T08:55:30;24.47;;;15.23;;
6374;SDS011;35400;45.472;-122.822;2022-12-18T08:57:57;23.73;;;15.50;;
6374;SDS011;35400;45.472;-122.822;2022-12-18T09:00:24;19.47;;;15.07;;
6374;SDS011;35400;45.472;-122.822;2022-12-18T09:02:51;22.07;;;14.93;;
6374;SDS011;35400;45.472;-122.822;2022-12-18T09:05:18;22.57;;;14.60;;
6374;SDS011;35400;45.472;-122.822;2022-12-18T09:07:44;23.33;;;15.70;;
6374;SDS011;35400;45.472;-122.822;2022-12-18T09:10:12;26.67;;;17.33;;
6374;SDS011;35400;45.472;-122.822;2022-12-18T09:12:41;22.50;;;16.87;;
6374;SDS011;35400;45.472;-122.822;2022-12-18T09:15:08;21.23;;;15.60;;
6374;SDS011;35400;45.472;-122.822;2022-12-18T09:17:35;22.10;;;16.03;;
6374;SDS011;35400;45.472;-122.822;2022-12-18T09:20:02;21.03;;;15.23;;
6374;SDS011;35400;45.472;-122.822;2022-12-18T09:22:30;21.33;;;15.30;;
6374;SDS011;35400;45.472;-122.822;2022-12-18T09:24:57;21.23;;;14.73;;
6374;SDS011;35400;45.472;-122.822;2022-12-18T09:27:24;21.33;;;14.10;;
6374;SDS011;35400;45.472;-122.822;2022-12-18T09:29:51;19.63;;;13.87;;
6374;SDS011;35400;45.472;-122.822;2022-12-18T09:32:18;21.63;;;14.67;;
6374;SDS011;35400;45.472;-122.822;2022-12-18T09:34:45;19.70;;;14.13;;
6374;SDS011;35400;45.472;-122.822;2022-12-18T09:37:12;20.00;;;14.60;;
6374;SDS011;35400;45.472;-122.822;2022-12-18T09:39:39;19.17;;;13.83;;
6374;SDS011;35400;45.472;-122.822;2022-12-18T09:42:08;18.77;;;13.40;;
6374;SDS011;35400;45.472;-122.822;2022-12-18T09:44:46;19.13;;;14.13;;
6374;SDS011;35400;45.472;-122.822;2022-12-18T09:50:05;20.77;;;14.00;;
6374;SDS011;35400;45.472;-122.822;2022-12-18T09:52:45;22.93;;;13.93;;
6374;SDS011;35400;45.472;-122.822;2022-12-18T09:55:27;18.53;;;13.00;;
6374;SDS011;35400;45.472;-122.822;2022-12-18T09:57:56;21.20;;;13.27;;
6374;SDS011;35400;45.472;-122.822;2022-12-18T10:00:28;22.03;;;14.23;;
6374;SDS011;35400;45.472;-122.822;2022-12-18T10:02:59;18.63;;;13.60;;
6374;SDS011;35400;45.472;-122.822;2022-12-18T10:08:33;19.13;;;13.00;;
6374;SDS011;35400;45.472;-122.822;2022-12-18T10:11:20;22.93;;;13.27;;
6374;SDS011;35400;45.472;-122.822;2022-12-18T10:19:55;18.27;;;13.17;;
6374;SDS011;35400;45.472;-122.822;2022-12-18T10:22:57;17.77;;;13.17;;
6374;SDS011;35400;45.472;-122.822;2022-12-18T10:28:18;20.73;;;13.73;;
6374;SDS011;35400;45.472;-122.822;2022-12-18T10:30:46;16.97;;;13.07;;
6374;SDS011;35400;45.472;-122.822;2022-12-18T10:33:14;17.87;;;13.50;;
6374;SDS011;35400;45.472;-122.822;2022-12-18T10:35:45;16.80;;;12.43;;
6374;SDS011;35400;45.472;-122.822;2022-12-18T10:40:50;15.50;;;11.87;;
6374;SDS011;35400;45.472;-122.822;2022-12-18T10:43:31;15.83;;;11.57;;
6374;SDS011;35400;45.472;-122.822;2022-12-18T10:54:35;16.77;;;11.60;;
6374;SDS011;35400;45.472;-122.822;2022-12-18T10:56:45;16.67;;;11.93;;
6374;SDS011;35400;45.472;-122.822;2022-12-18T10:59:13;17.03;;;11.73;;
6374;SDS011;35400;45.472;-122.822;2022-12-18T11:01:52;16.40;;;11.33;;
6374;SDS011;35400;45.472;-122.822;2022-12-18T11:04:23;15.23;;;11.07;;
6374;SDS011;35400;45.472;-122.822;2022-12-18T11:07:12;14.10;;;10.80;;
6374;SDS011;35400;45.472;-122.822;2022-12-18T11:09:39;15.83;;;12.17;;
6374;SDS011;35400;45.472;-122.822;2022-12-18T11:14:43;12.80;;;9.37;;
6374;SDS011;35400;45.472;-122.822;2022-12-18T11:17:46;15.97;;;11.00;;
6374;SDS011;35400;45.472;-122.822;2022-12-18T11:20:53;13.17;;;10.17;;
6374;SDS011;35400;45.472;-122.822;2022-12-18T11:23:02;14.93;;;10.43;;
6374;SDS011;35400;45.472;-122.822;2022-12-18T11:25:32;12.93;;;10.00;;
6374;SDS011;35400;45.472;-122.822;2022-12-18T11:28:01;14.80;;;10.20;;
6374;SDS011;35400;45.472;-122.822;2022-12-18T11:30:48;14.17;;;10.10;;
6374;SDS011;35400;45.472;-122.822;2022-12-18T11:33:19;14.43;;;9.83;;
6374;SDS011;35400;45.472;-122.822;2022-12-18T11:41:15;9.73;;;7.07;;
6374;SDS011;35400;45.472;-122.822;2022-12-18T11:44:11;10.03;;;6.90;;
6374;SDS011;35400;45.472;-122.822;2022-12-18T11:46:51;8.60;;;6.90;;
6374;SDS011;35400;45.472;-122.822;2022-12-18T11:49:34;9.53;;;6.20;;
6374;SDS011;35400;45.472;-122.822;2022-12-18T11:52:15;8.47;;;6.57;;
6374;SDS011;35400;45.472;-122.822;2022-12-18T11:54:55;9.47;;;6.13;;
6374;SDS011;35400;45.472;-122.822;2022-12-18T12:00:20;8.73;;;6.10;;
6374;SDS011;35400;45.472;-122.822;2022-12-18T12:14:32;8.00;;;5.23;;
6374;SDS011;35400;45.472;-122.822;2022-12-18T12:19:35;9.77;;;5.13;;
6374;SDS011;35400;45.472;-122.822;2022-12-18T12:22:19;8.20;;;5.50;;
6374;SDS011;35400;45.472;-122.822;2022-12-18T12:33:35;6.93;;;5.20;;
6374;SDS011;35400;45.472;-122.822;2022-12-18T12:36:13;8.40;;;5.40;;
6374;SDS011;35400;45.472;-122.822;2022-12-18T12:39:01;7.90;;;5.37;;
6374;SDS011;35400;45.472;-122.822;2022-12-18T12:41:33;8.60;;;5.63;;
6374;SDS011;35400;45.472;-122.822;2022-12-18T12:44:22;10.30;;;6.00;;
6374;SDS011;35400;45.472;-122.822;2022-12-18T12:46:57;8.30;;;5.03;;
6374;SDS011;35400;45.472;-122.822;2022-12-18T12:49:30;8.83;;;5.70;;
6374;SDS011;35400;45.472;-122.822;2022-12-18T12:52:06;6.60;;;4.87;;
6374;SDS011;35400;45.472;-122.822;2022-12-18T12:54:38;6.13;;;4.90;;
6374;SDS011;35400;45.472;-122.822;2022-12-18T13:02:14;8.03;;;5.27;;
6374;SDS011;35400;45.472;-122.822;2022-12-18T13:04:57;6.13;;;5.00;;
6374;SDS011;35400;45.472;-122.822;2022-12-18T13:07:33;5.67;;;5.07;;
6374;SDS011;35400;45.472;-122.822;2022-12-18T13:10:14;7.80;;;5.27;;
6374;SDS011;35400;45.472;-122.822;2022-12-18T13:15:37;6.87;;;5.00;;
6374;SDS011;35400;45.472;-122.822;2022-12-18T13:20:35;5.67;;;4.80;;
6374;SDS011;35400;45.472;-122.822;2022-12-18T13:25:50;7.00;;;4.40;;
6374;SDS011;35400;45.472;-122.822;2022-12-18T13:34:22;7.67;;;4.70;;
6374;SDS011;35400;45.472;-122.822;2022-12-18T13:36:48;5.03;;;4.33;;
6374;SDS011;35400;45.472;-122.822;2022-12-18T13:41:53;6.03;;;4.53;;
6374;SDS011;35400;45.472;-122.822;2022-12-18T13:44:59;7.73;;;5.07;;
6374;SDS011;35400;45.472;-122.822;2022-12-18T13:50:09;6.50;;;4.67;;
6374;SDS011;35400;45.472;-122.822;2022-12-18T13:52:52;4.97;;;4.07;;
6374;SDS011;35400;45.472;-122.822;2022-12-18T13:55:19;7.00;;;4.67;;
6374;SDS011;35400;45.472;-122.822;2022-12-18T13:57:48;6.23;;;4.83;;
6374;SDS011;35400;45.472;-122.822;2022-12-18T14:00:28;6.33;;;4.60;;
6374;SDS011;35400;45.472;-122.822;2022-12-18T14:02:57;6.20;;;5.13;;
6374;SDS011;35400;45.472;-122.822;2022-12-18T14:05:26;7.63;;;4.97;;
6374;SDS011;35400;45.472;-122.822;2022-12-18T14:08:04;5.37;;;4.37;;
6374;SDS011;35400;45.472;-122.822;2022-12-18T14:10:39;6.40;;;4.93;;
6374;SDS011;35400;45.472;-122.822;2022-12-18T14:13:15;6.77;;;4.23;;
6374;SDS011;35400;45.472;-122.822;2022-12-18T14:15:50;7.30;;;5.17;;
6374;SDS011;35400;45.472;-122.822;2022-12-18T14:20:44;5.80;;;4.47;;
6374;SDS011;35400;45.472;-122.822;2022-12-18T14:25:57;4.73;;;3.77;;
6374;SDS011;35400;45.472;-122.822;2022-12-18T14:28:25;6.70;;;4.30;;
6374;SDS011;35400;45.472;-122.822;2022-12-18T14:30:52;4.80;;;4.10;;
6374;SDS011;35400;45.472;-122.822;2022-12-18T14:33:21;6.13;;;4.20;;
6374;SDS011;35400;45.472;-122.822;2022-12-18T14:38:38;6.23;;;4.47;;
6374;SDS011;35400;45.472;-122.822;2022-12-18T14:41:12;4.73;;;4.07;;
6374;SDS011;35400;45.472;-122.822;2022-12-18T14:43:42;5.87;;;3.53;;
6374;SDS011;35400;45.472;-122.822;2022-12-18T14:46:30;6.93;;;4.53;;
6374;SDS011;35400;45.472;-122.822;2022-12-18T14:51:50;6.93;;;3.97;;
6374;SDS011;35400;45.472;-122.822;2022-12-18T14:54:25;7.23;;;3.80;;
6374;SDS011;35400;45.472;-122.822;2022-12-18T14:59:40;5.07;;;4.20;;
6374;SDS011;35400;45.472;-122.822;2022-12-18T15:02:20;5.13;;;4.03;;
6374;SDS011;35400;45.472;-122.822;2022-12-18T15:07:42;6.23;;;4.07;;
6374;SDS011;35400;45.472;-122.822;2022-12-18T15:10:18;4.57;;;3.70;;
6374;SDS011;35400;45.472;-122.822;2022-12-18T15:18:04;6.63;;;4.10;;
6374;SDS011;35400;45.472;-122.822;2022-12-18T15:20:41;6.33;;;4.20;;
6374;SDS011;35400;45.472;-122.822;2022-12-18T15:23:26;6.07;;;4.70;;
6374;SDS011;35400;45.472;-122.822;2022-12-18T15:26:04;6.93;;;4.43;;
6374;SDS011;35400;45.472;-122.822;2022-12-18T15:33:43;7.40;;;4.17;;
6374;SDS011;35400;45.472;-122.822;2022-12-18T15:36:20;5.33;;;3.73;;
6374;SDS011;35400;45.472;-122.822;2022-12-18T15:38:50;8.37;;;4.13;;
6374;SDS011;35400;45.472;-122.822;2022-12-18T15:41:19;5.40;;;3.80;;
6374;SDS011;35400;45.472;-122.822;2022-12-18T15:43:50;5.87;;;4.17;;
6374;SDS011;35400;45.472;-122.822;2022-12-18T15:46:19;4.33;;;3.93;;
6374;SDS011;35400;45.472;-122.822;2022-12-18T15:48:51;5.47;;;3.93;;
6374;SDS011;35400;45.472;-122.822;2022-12-18T15:51:28;4.57;;;4.10;;
6374;SDS011;35400;45.472;-122.822;2022-12-18T15:53:58;5.27;;;3.77;;
6374;SDS011;35400;45.472;-122.822;2022-12-18T15:56:29;4.47;;;3.87;;
6374;SDS011;35400;45.472;-122.822;2022-12-18T15:59:15;4.10;;;3.70;;
6374;SDS011;35400;45.472;-122.822;2022-12-18T16:01:45;6.20;;;4.03;;
6374;SDS011;35400;45.472;-122.822;2022-12-18T16:04:15;4.43;;;4.03;;
6374;SDS011;35400;45.472;-122.822;2022-12-18T16:06:46;5.33;;;3.97;;
6374;SDS011;35400;45.472;-122.822;2022-12-18T16:09:13;4.13;;;3.73;;
6374;SDS011;35400;45.472;-122.822;2022-12-18T16:11:41;6.20;;;3.97;;
6374;SDS011;35400;45.472;-122.822;2022-12-18T16:17:11;4.90;;;3.60;;
6374;SDS011;35400;45.472;-122.822;2022-12-18T16:19:39;4.67;;;3.47;;
6374;SDS011;35400;45.472;-122.822;2022-12-18T16:22:19;5.40;;;3.20;;
6374;SDS011;35400;45.472;-122.822;2022-12-18T16:24:54;5.10;;;3.00;;
6374;SDS011;35400;45.472;-122.822;2022-12-18T16:27:22;3.77;;;3.43;;
6374;SDS011;35400;45.472;-122.822;2022-12-18T16:29:49;4.50;;;3.27;;
6374;SDS011;35400;45.472;-122.822;2022-12-18T16:32:18;3.40;;;3.10;;
6374;SDS011;35400;45.472;-122.822;2022-12-18T16:34:46;3.23;;;2.93;;
6374;SDS011;35400;45.472;-122.822;2022-12-18T16:37:14;3.57;;;2.70;;
6374;SDS011;35400;45.472;-122.822;2022-12-18T16:39:42;4.63;;;3.20;;
6374;SDS011;35400;45.472;-122.822;2022-12-18T16:42:11;4.10;;;3.00;;
6374;SDS011;35400;45.472;-122.822;2022-12-18T16:44:42;2.93;;;2.67;;
6374;SDS011;35400;45.472;-122.822;2022-12-18T16:47:09;4.13;;;3.07;;
6374;SDS011;35400;45.472;-122.822;2022-12-18T16:49:36;3.53;;;2.87;;